Time;durP1;ratioP1;P1;durP2;ratioP2;P2;SDS_P1;SDS_P2;PMS_P1;PMS_P2;Temp;Humidity;BMP_temperature;BMP_pressure;BME280_temperature;BME280_humidity;BME280_pressure;Samples;Min_cycle;Max_cycle;Signal;HPM_P1;HPM_P2
2021/07/25 00:00:36;;;;;;;6.45;3.88;;;;;;;;;;5111544;28;20048;-66
2021/07/25 00:03:04;;;;;;;7.88;3.47;;;;;;;;;;5110674;28;20164;-66
2021/07/25 00:05:31;;;;;;;6.80;3.83;;;;;;;;;;5111891;28;20070;-66
2021/07/25 00:07:57;;;;;;;6.22;3.30;;;;;;;;;;5111482;28;20055;-66
2021/07/25 00:10:24;;;;;;;7.60;4.00;;;;;;;;;;5112202;28;20544;-66
2021/07/25 00:12:51;;;;;;;6.38;3.80;;;;;;;;;;5111268;28;20043;-67
2021/07/25 00:15:17;;;;;;;7.15;3.35;;;;;;;;;;5111992;28;20047;-66
2021/07/25 00:17:44;;;;;;;7.93;3.83;;;;;;;;;;5108708;28;20044;-66
2021/07/25 00:20:13;;;;;;;5.55;3.30;;;;;;;;;;5104111;28;20044;-67
2021/07/25 00:22:40;;;;;;;8.27;3.30;;;;;;;;;;5108463;28;20044;-66
2021/07/25 00:25:13;;;;;;;6.90;3.22;;;;;;;;;;5094137;28;20062;-66
2021/07/25 00:27:41;;;;;;;6.57;3.70;;;;;;;;;;5111531;28;20043;-67
2021/07/25 00:30:10;;;;;;;7.13;3.50;;;;;;;;;;5111359;28;20146;-67
2021/07/25 00:32:36;;;;;;;10.02;4.35;;;;;;;;;;5111676;28;20051;-67
2021/07/25 00:35:03;;;;;;;6.03;3.65;;;;;;;;;;5111592;28;20047;-67
2021/07/25 00:37:31;;;;;;;6.53;3.45;;;;;;;;;;5109978;28;20058;-67
2021/07/25 00:39:57;;;;;;;6.75;3.80;;;;;;;;;;5110081;28;20492;-66
2021/07/25 00:42:24;;;;;;;8.13;3.22;;;;;;;;;;5110284;28;20067;-66
2021/07/25 00:44:50;;;;;;;6.47;4.07;;;;;;;;;;5111542;28;20051;-67
2021/07/25 00:47:17;;;;;;;8.30;3.97;;;;;;;;;;5102701;28;20058;-67
2021/07/25 00:49:43;;;;;;;5.90;4.00;;;;;;;;;;5103439;28;20396;-66
2021/07/25 00:52:10;;;;;;;7.82;3.42;;;;;;;;;;5104115;28;20055;-66
2021/07/25 00:54:39;;;;;;;6.05;3.20;;;;;;;;;;5105000;28;20416;-66
2021/07/25 00:57:05;;;;;;;7.30;4.15;;;;;;;;;;5101993;28;20063;-66
2021/07/25 00:59:32;;;;;;;8.68;3.72;;;;;;;;;;5111136;28;20079;-66
2021/07/25 01:01:58;;;;;;;5.60;3.47;;;;;;;;;;5111320;28;20047;-66
2021/07/25 01:04:36;;;;;;;7.47;4.43;;;;;;;;;;5111545;28;20054;-66
2021/07/25 01:07:08;;;;;;;7.15;3.78;;;;;;;;;;5111703;28;20050;-66
2021/07/25 01:09:39;;;;;;;11.85;4.93;;;;;;;;;;5111444;28;20399;-66
2021/07/25 01:12:08;;;;;;;7.88;3.90;;;;;;;;;;5111410;28;20487;-66
2021/07/25 01:14:36;;;;;;;11.77;5.05;;;;;;;;;;5108066;28;20377;-66
2021/07/25 01:17:33;;;;;;;8.57;4.03;;;;;;;;;;5107682;28;20043;-66
2021/07/25 01:20:01;;;;;;;10.82;3.90;;;;;;;;;;5105576;28;20045;-66
2021/07/25 01:22:30;;;;;;;10.65;4.45;;;;;;;;;;5109186;28;20048;-66
2021/07/25 01:24:57;;;;;;;9.45;4.70;;;;;;;;;;5094809;28;20046;-66
2021/07/25 01:27:29;;;;;;;8.68;4.55;;;;;;;;;;5109232;28;20368;-66
2021/07/25 01:29:57;;;;;;;8.82;4.05;;;;;;;;;;5111217;28;20411;-66
2021/07/25 01:32:25;;;;;;;11.85;4.28;;;;;;;;;;5111144;28;20043;-66
2021/07/25 01:34:52;;;;;;;9.10;4.35;;;;;;;;;;5111729;28;20131;-66
2021/07/25 01:37:21;;;;;;;6.55;3.72;;;;;;;;;;5111189;28;20043;-66
2021/07/25 01:39:47;;;;;;;7.90;4.05;;;;;;;;;;5108216;28;20389;-66
2021/07/25 01:42:26;;;;;;;7.65;4.55;;;;;;;;;;5111319;28;20054;-66
2021/07/25 01:44:52;;;;;;;8.75;3.92;;;;;;;;;;5111214;28;20051;-66
2021/07/25 01:47:19;;;;;;;8.68;4.65;;;;;;;;;;5111007;28;20675;-66
2021/07/25 01:49:45;;;;;;;10.00;4.85;;;;;;;;;;5111450;28;20471;-66
2021/07/25 01:52:12;;;;;;;11.23;4.93;;;;;;;;;;5112804;28;20052;-66
2021/07/25 01:54:41;;;;;;;9.35;4.55;;;;;;;;;;5110352;28;20051;-66
2021/07/25 01:57:08;;;;;;;10.65;4.63;;;;;;;;;;5112054;28;20048;-66
2021/07/25 01:59:34;;;;;;;8.55;4.00;;;;;;;;;;5112949;28;21582;-66
2021/07/25 02:02:01;;;;;;;7.72;4.07;;;;;;;;;;5111898;28;20519;-66
2021/07/25 02:04:27;;;;;;;8.43;4.35;;;;;;;;;;5111737;28;20400;-65
2021/07/25 02:06:54;;;;;;;9.32;4.40;;;;;;;;;;5114561;28;20051;-66
2021/07/25 02:09:20;;;;;;;11.35;5.30;;;;;;;;;;5114404;28;20059;-65
2021/07/25 02:11:48;;;;;;;7.78;4.80;;;;;;;;;;5114448;28;20047;-65
2021/07/25 02:14:14;;;;;;;9.68;3.70;;;;;;;;;;5114290;28;20697;-66
2021/07/25 02:16:41;;;;;;;9.90;4.50;;;;;;;;;;5113494;28;20090;-66
2021/07/25 02:19:07;;;;;;;9.70;4.90;;;;;;;;;;5114318;28;20066;-65
2021/07/25 02:21:34;;;;;;;11.27;5.38;;;;;;;;;;5114040;28;20058;-66
2021/07/25 02:24:01;;;;;;;14.27;7.25;;;;;;;;;;5114397;28;20051;-65
2021/07/25 02:26:27;;;;;;;7.50;4.70;;;;;;;;;;5114322;28;20055;-66
2021/07/25 02:28:55;;;;;;;11.30;4.97;;;;;;;;;;5114117;28;20419;-66
2021/07/25 02:31:21;;;;;;;10.98;7.70;;;;;;;;;;5113754;28;20070;-65
2021/07/25 02:33:48;;;;;;;10.50;5.78;;;;;;;;;;5114146;28;20047;-65
2021/07/25 02:36:14;;;;;;;9.70;5.40;;;;;;;;;;5113819;28;20055;-65
2021/07/25 02:38:41;;;;;;;11.98;5.97;;;;;;;;;;5113553;28;20048;-65
2021/07/25 02:41:07;;;;;;;8.48;5.22;;;;;;;;;;5113717;28;20388;-66
2021/07/25 02:43:34;;;;;;;8.70;6.00;;;;;;;;;;5113966;28;20400;-66
2021/07/25 02:46:02;;;;;;;12.45;5.35;;;;;;;;;;5113678;28;20067;-66
2021/07/25 02:48:28;;;;;;;10.82;6.75;;;;;;;;;;5114000;28;20484;-66
2021/07/25 02:50:58;;;;;;;11.98;5.60;;;;;;;;;;5113856;28;20051;-66
2021/07/25 02:53:24;;;;;;;11.30;5.60;;;;;;;;;;5113345;28;20047;-66
2021/07/25 02:55:51;;;;;;;12.23;5.78;;;;;;;;;;5113457;28;20484;-66
2021/07/25 02:58:17;;;;;;;8.80;5.10;;;;;;;;;;5113336;28;20050;-65
2021/07/25 03:00:44;;;;;;;11.32;6.28;;;;;;;;;;5113490;28;20067;-65
2021/07/25 03:03:12;;;;;;;9.70;5.63;;;;;;;;;;5113216;28;20060;-65
2021/07/25 03:05:38;;;;;;;7.47;5.63;;;;;;;;;;5113447;28;20054;-65
2021/07/25 03:08:05;;;;;;;7.30;5.20;;;;;;;;;;5113465;28;20047;-65
2021/07/25 03:10:31;;;;;;;9.40;5.57;;;;;;;;;;5113032;28;20058;-65
2021/07/25 03:12:58;;;;;;;11.02;6.40;;;;;;;;;;5113445;28;20054;-65
2021/07/25 03:15:24;;;;;;;9.65;5.72;;;;;;;;;;5112960;28;20058;-65
2021/07/25 03:17:52;;;;;;;10.00;5.40;;;;;;;;;;5112919;28;20047;-65
2021/07/25 03:20:20;;;;;;;10.98;6.28;;;;;;;;;;5113184;28;20047;-65
2021/07/25 03:22:46;;;;;;;11.43;6.43;;;;;;;;;;5112681;28;20530;-65
2021/07/25 03:25:14;;;;;;;12.88;5.70;;;;;;;;;;5112943;28;20055;-64
2021/07/25 03:27:40;;;;;;;9.35;6.18;;;;;;;;;;5113131;28;20050;-65
2021/07/25 03:30:08;;;;;;;11.13;6.68;;;;;;;;;;5112827;28;20052;-65
2021/07/25 03:32:34;;;;;;;8.88;5.45;;;;;;;;;;5112887;28;20051;-65
2021/07/25 03:35:01;;;;;;;8.10;5.97;;;;;;;;;;5112816;28;20492;-65
2021/07/25 03:37:28;;;;;;;8.48;5.07;;;;;;;;;;5112618;28;20052;-65
2021/07/25 03:39:55;;;;;;;8.85;5.43;;;;;;;;;;5112281;28;20047;-66
2021/07/25 03:42:22;;;;;;;10.18;5.90;;;;;;;;;;5112167;28;20055;-65
2021/07/25 03:44:49;;;;;;;11.38;5.35;;;;;;;;;;5108096;28;20040;-65
2021/07/25 03:47:16;;;;;;;10.93;6.70;;;;;;;;;;5112255;28;20039;-65
2021/07/25 03:49:43;;;;;;;8.52;4.78;;;;;;;;;;5092603;28;20055;-65
2021/07/25 03:52:11;;;;;;;9.05;5.28;;;;;;;;;;5092509;28;20048;-65
2021/07/25 03:54:42;;;;;;;9.15;5.85;;;;;;;;;;5092541;28;20056;-65
2021/07/25 03:57:08;;;;;;;11.73;5.68;;;;;;;;;;5105881;28;20452;-65
2021/07/25 03:59:35;;;;;;;10.77;5.10;;;;;;;;;;5111989;28;20048;-65
2021/07/25 04:02:02;;;;;;;8.07;5.75;;;;;;;;;;5111894;28;20130;-65
2021/07/25 04:04:29;;;;;;;10.52;5.60;;;;;;;;;;5102486;28;20054;-65
2021/07/25 04:06:55;;;;;;;8.85;5.40;;;;;;;;;;5092101;28;20040;-65
2021/07/25 04:09:21;;;;;;;9.20;4.80;;;;;;;;;;5092243;28;20473;-65
2021/07/25 04:11:51;;;;;;;11.07;6.45;;;;;;;;;;5092198;28;20481;-65
2021/07/25 04:14:18;;;;;;;9.57;5.38;;;;;;;;;;5091947;28;20485;-65
2021/07/25 04:16:44;;;;;;;10.40;6.00;;;;;;;;;;5110184;28;20488;-65
2021/07/25 04:19:11;;;;;;;7.53;5.20;;;;;;;;;;5096028;28;20138;-66
2021/07/25 04:21:37;;;;;;;10.73;5.53;;;;;;;;;;5106751;28;20051;-65
2021/07/25 04:24:04;;;;;;;8.50;6.22;;;;;;;;;;5112790;28;20054;-66
2021/07/25 04:26:31;;;;;;;9.90;5.20;;;;;;;;;;5112363;28;20139;-66
2021/07/25 04:29:00;;;;;;;9.90;6.50;;;;;;;;;;5112006;28;20403;-65
2021/07/25 04:31:27;;;;;;;8.05;4.50;;;;;;;;;;5111910;28;20050;-66
2021/07/25 04:33:55;;;;;;;9.82;4.80;;;;;;;;;;5112068;28;20233;-66
2021/07/25 04:36:25;;;;;;;7.50;4.90;;;;;;;;;;5111975;28;20445;-66
2021/07/25 04:38:53;;;;;;;9.90;5.22;;;;;;;;;;5112152;28;20052;-66
2021/07/25 04:41:22;;;;;;;9.50;4.80;;;;;;;;;;5112449;28;20054;-66
2021/07/25 04:43:50;;;;;;;6.57;4.32;;;;;;;;;;5112098;28;20492;-66
2021/07/25 04:46:23;;;;;;;10.45;5.43;;;;;;;;;;5112003;28;20055;-66
2021/07/25 04:48:55;;;;;;;7.55;5.40;;;;;;;;;;5112065;28;20055;-66
2021/07/25 04:51:23;;;;;;;10.25;5.82;;;;;;;;;;5112183;28;20056;-65
2021/07/25 04:53:51;;;;;;;8.02;4.85;;;;;;;;;;5111904;28;20047;-66
2021/07/25 04:56:20;;;;;;;8.70;4.60;;;;;;;;;;5111890;28;20058;-66
2021/07/25 04:58:49;;;;;;;7.15;4.10;;;;;;;;;;5111665;28;20396;-66
2021/07/25 05:01:18;;;;;;;12.30;7.13;;;;;;;;;;5111667;28;20450;-66
2021/07/25 05:03:46;;;;;;;7.00;4.45;;;;;;;;;;5111916;28;20051;-66
2021/07/25 05:06:15;;;;;;;10.15;5.47;;;;;;;;;;5111615;28;20055;-66
2021/07/25 05:08:42;;;;;;;10.43;5.65;;;;;;;;;;5111953;28;20058;-66
2021/07/25 05:11:16;;;;;;;6.95;4.57;;;;;;;;;;5111820;28;20054;-66
2021/07/25 05:13:44;;;;;;;9.40;5.30;;;;;;;;;;5111304;28;20051;-66
2021/07/25 05:16:12;;;;;;;9.27;5.93;;;;;;;;;;5112049;28;20039;-66
2021/07/25 05:18:45;;;;;;;11.68;5.65;;;;;;;;;;5111572;28;20048;-66
2021/07/25 05:21:23;;;;;;;9.90;5.35;;;;;;;;;;5111883;28;20502;-66
2021/07/25 05:23:53;;;;;;;9.88;5.75;;;;;;;;;;5111693;28;20171;-66
2021/07/25 05:26:23;;;;;;;10.13;6.15;;;;;;;;;;5114340;28;20472;-66
2021/07/25 05:28:53;;;;;;;8.23;5.65;;;;;;;;;;5115754;28;20054;-66
2021/07/25 05:31:20;;;;;;;7.75;5.20;;;;;;;;;;5115486;28;20051;-66
2021/07/25 05:33:48;;;;;;;7.97;4.72;;;;;;;;;;5115260;28;20051;-66
2021/07/25 05:36:14;;;;;;;8.07;5.55;;;;;;;;;;5115321;28;20050;-66
2021/07/25 05:38:41;;;;;;;6.90;4.57;;;;;;;;;;5115476;28;20040;-66
2021/07/25 05:41:07;;;;;;;7.38;4.88;;;;;;;;;;5115364;28;20062;-66
2021/07/25 05:43:34;;;;;;;8.00;4.80;;;;;;;;;;5115414;28;20051;-66
2021/07/25 05:46:00;;;;;;;8.98;5.07;;;;;;;;;;5115129;28;20048;-66
2021/07/25 05:48:26;;;;;;;9.27;5.35;;;;;;;;;;5115207;27;20046;-66
2021/07/25 05:50:54;;;;;;;8.60;5.65;;;;;;;;;;5114709;28;20492;-66
2021/07/25 05:53:21;;;;;;;8.13;4.75;;;;;;;;;;5114938;28;20047;-66
2021/07/25 05:55:47;;;;;;;9.18;5.28;;;;;;;;;;5114688;28;20047;-66
2021/07/25 05:58:14;;;;;;;8.57;4.60;;;;;;;;;;5114924;28;20044;-65
2021/07/25 06:00:40;;;;;;;8.65;4.38;;;;;;;;;;5114970;28;20411;-65
2021/07/25 06:03:07;;;;;;;8.93;5.75;;;;;;;;;;5114379;28;20480;-65
2021/07/25 06:05:35;;;;;;;8.57;4.88;;;;;;;;;;5114883;28;20048;-65
2021/07/25 06:08:04;;;;;;;6.68;4.75;;;;;;;;;;5114952;27;20051;-65
2021/07/25 06:10:32;;;;;;;7.60;5.05;;;;;;;;;;5114943;28;20503;-65
2021/07/25 06:12:59;;;;;;;10.27;5.78;;;;;;;;;;5114645;28;20051;-65
2021/07/25 06:15:26;;;;;;;10.65;5.40;;;;;;;;;;5114330;28;20047;-65
2021/07/25 06:17:53;;;;;;;8.13;4.82;;;;;;;;;;5114149;28;20503;-66
2021/07/25 06:20:19;;;;;;;10.95;5.85;;;;;;;;;;5114406;28;20043;-66
2021/07/25 06:22:47;;;;;;;8.75;5.55;;;;;;;;;;5113804;28;20480;-65
2021/07/25 06:25:18;;;;;;;8.80;5.38;;;;;;;;;;5106488;28;20051;-65
2021/07/25 06:27:44;;;;;;;9.07;5.22;;;;;;;;;;5110754;28;20124;-65
2021/07/25 06:30:11;;;;;;;9.45;5.07;;;;;;;;;;5114601;28;20051;-65
2021/07/25 06:32:54;;;;;;;9.68;5.75;;;;;;;;;;5114076;28;20051;-65
2021/07/25 06:35:21;;;;;;;8.60;5.38;;;;;;;;;;5114157;28;20047;-66
2021/07/25 06:37:48;;;;;;;6.93;4.45;;;;;;;;;;5113031;28;20063;-65
2021/07/25 06:40:16;;;;;;;6.80;4.75;;;;;;;;;;5114428;28;20530;-65
2021/07/25 06:42:42;;;;;;;7.93;5.45;;;;;;;;;;5114182;28;20047;-65
2021/07/25 06:45:11;;;;;;;6.70;4.38;;;;;;;;;;5114005;28;20055;-65
2021/07/25 06:47:37;;;;;;;6.97;4.60;;;;;;;;;;5113525;28;20077;-65
2021/07/25 06:50:04;;;;;;;7.75;4.97;;;;;;;;;;5114123;27;20465;-65
2021/07/25 06:52:31;;;;;;;9.23;4.82;;;;;;;;;;5113677;28;20043;-66
2021/07/25 06:54:57;;;;;;;7.85;4.72;;;;;;;;;;5114127;28;20055;-65
2021/07/25 06:57:25;;;;;;;8.52;4.68;;;;;;;;;;5111534;27;20059;-65
2021/07/25 06:59:51;;;;;;;8.35;4.30;;;;;;;;;;5113518;28;20477;-65
2021/07/25 07:02:18;;;;;;;7.97;5.18;;;;;;;;;;5110735;28;20043;-65
2021/07/25 07:04:44;;;;;;;7.22;4.95;;;;;;;;;;5112297;28;20047;-65
2021/07/25 07:07:11;;;;;;;7.82;4.95;;;;;;;;;;5113505;28;20051;-66
2021/07/25 07:09:38;;;;;;;10.27;5.57;;;;;;;;;;5101978;28;20055;-65
2021/07/25 07:12:05;;;;;;;9.23;5.93;;;;;;;;;;5104178;28;20378;-66
2021/07/25 07:14:33;;;;;;;8.60;5.82;;;;;;;;;;5113343;28;20044;-66
2021/07/25 07:16:59;;;;;;;8.55;5.47;;;;;;;;;;5113442;28;20063;-66
2021/07/25 07:19:26;;;;;;;9.77;5.15;;;;;;;;;;5113037;28;20051;-66
2021/07/25 07:21:52;;;;;;;9.57;6.07;;;;;;;;;;5113656;28;20074;-66
2021/07/25 07:24:19;;;;;;;8.65;5.43;;;;;;;;;;5113324;28;20052;-66
2021/07/25 07:26:45;;;;;;;8.63;4.97;;;;;;;;;;5113200;28;20059;-66
2021/07/25 07:29:12;;;;;;;7.28;5.18;;;;;;;;;;5112810;28;20420;-66
2021/07/25 07:31:41;;;;;;;12.55;5.30;;;;;;;;;;5110010;28;20044;-66
2021/07/25 07:34:07;;;;;;;9.65;5.28;;;;;;;;;;5108365;28;20484;-67
2021/07/25 07:36:34;;;;;;;7.53;6.18;;;;;;;;;;5103932;28;20465;-66
2021/07/25 07:39:00;;;;;;;9.85;5.97;;;;;;;;;;5112975;28;20052;-66
2021/07/25 07:41:26;;;;;;;9.48;5.70;;;;;;;;;;5113208;28;20062;-66
2021/07/25 07:43:53;;;;;;;8.75;5.30;;;;;;;;;;5112990;28;20059;-66
2021/07/25 07:46:19;;;;;;;8.95;5.03;;;;;;;;;;5109236;28;20054;-66
2021/07/25 07:48:47;;;;;;;10.50;6.35;;;;;;;;;;5111370;28;20054;-66
2021/07/25 07:51:13;;;;;;;10.70;5.57;;;;;;;;;;5110910;28;20384;-66
2021/07/25 07:53:40;;;;;;;10.18;5.50;;;;;;;;;;5112095;28;20388;-66
2021/07/25 07:56:06;;;;;;;12.52;5.85;;;;;;;;;;5110689;28;20077;-66
2021/07/25 07:58:33;;;;;;;9.30;5.05;;;;;;;;;;5111386;28;20051;-66
2021/07/25 08:00:59;;;;;;;7.43;5.38;;;;;;;;;;5111189;28;20063;-66
2021/07/25 08:03:26;;;;;;;8.88;5.32;;;;;;;;;;5111520;28;20047;-66
2021/07/25 08:05:53;;;;;;;7.13;5.50;;;;;;;;;;5111333;28;20070;-67
2021/07/25 08:08:20;;;;;;;8.30;5.93;;;;;;;;;;5109352;28;20381;-67
2021/07/25 08:10:46;;;;;;;7.55;5.43;;;;;;;;;;5110924;28;20059;-67
2021/07/25 08:13:13;;;;;;;10.65;5.55;;;;;;;;;;5110872;28;20048;-66
2021/07/25 08:15:39;;;;;;;10.80;6.25;;;;;;;;;;5111421;28;20056;-66
2021/07/25 08:18:08;;;;;;;7.45;5.65;;;;;;;;;;5111298;28;20052;-66
2021/07/25 08:20:34;;;;;;;9.98;6.93;;;;;;;;;;5111308;28;20047;-66
2021/07/25 08:23:02;;;;;;;9.13;5.78;;;;;;;;;;5111580;28;20047;-66
2021/07/25 08:25:28;;;;;;;10.23;5.47;;;;;;;;;;5111581;28;20044;-66
2021/07/25 08:27:55;;;;;;;8.35;5.85;;;;;;;;;;5110750;28;20047;-66
2021/07/25 08:30:21;;;;;;;9.43;6.13;;;;;;;;;;5107785;28;20039;-66
2021/07/25 08:32:48;;;;;;;10.40;6.55;;;;;;;;;;5110720;28;20065;-66
2021/07/25 08:35:14;;;;;;;9.13;6.35;;;;;;;;;;5110843;28;20573;-66
2021/07/25 08:37:41;;;;;;;8.50;6.38;;;;;;;;;;5110627;28;20495;-66
2021/07/25 08:40:13;;;;;;;8.35;6.32;;;;;;;;;;5110455;28;20047;-66
2021/07/25 08:42:56;;;;;;;9.63;6.97;;;;;;;;;;5104419;28;20052;-66
2021/07/25 08:45:23;;;;;;;8.38;6.35;;;;;;;;;;5100025;28;20417;-67
2021/07/25 08:47:53;;;;;;;9.30;6.40;;;;;;;;;;5108763;28;20373;-66
2021/07/25 08:50:27;;;;;;;9.95;6.50;;;;;;;;;;5110931;28;20357;-66
2021/07/25 08:52:55;;;;;;;11.68;6.68;;;;;;;;;;5099816;28;20105;-65
2021/07/25 08:55:23;;;;;;;10.77;7.35;;;;;;;;;;5104521;28;20052;-65
2021/07/25 08:57:51;;;;;;;10.02;6.32;;;;;;;;;;5102586;28;20109;-65
2021/07/25 09:00:20;;;;;;;10.63;6.47;;;;;;;;;;5105903;28;20052;-65
2021/07/25 09:05:32;;;;;;;8.27;6.15;;;;;;;;;;5438746;22;20404;-82
2021/07/25 09:07:58;;;;;;;8.68;6.18;;;;;;;;;;5048079;28;20041;-84
2021/07/25 09:10:27;;;;;;;9.18;6.38;;;;;;;;;;5051369;28;20061;-83
2021/07/25 09:12:55;;;;;;;7.70;5.43;;;;;;;;;;5048865;28;20050;-84
2021/07/25 09:15:24;;;;;;;8.38;5.95;;;;;;;;;;5059732;28;20045;-84
2021/07/25 09:17:51;;;;;;;10.80;6.38;;;;;;;;;;5060336;28;20041;-83
2021/07/25 09:20:24;;;;;;;8.55;5.18;;;;;;;;;;5056711;28;20412;-82
2021/07/25 09:22:59;;;;;;;7.72;5.47;;;;;;;;;;5056840;28;20045;-83
2021/07/25 09:25:33;;;;;;;6.85;5.68;;;;;;;;;;5055878;28;20459;-82
2021/07/25 09:28:25;;;;;;;8.07;4.72;;;;;;;;;;5054567;28;20064;-83
2021/07/25 09:30:53;;;;;;;6.75;4.60;;;;;;;;;;5055030;28;20041;-83
2021/07/25 09:33:33;;;;;;;8.48;5.28;;;;;;;;;;5058760;28;20049;-83
2021/07/25 09:36:08;;;;;;;6.63;4.80;;;;;;;;;;5058620;28;20106;-83
2021/07/25 09:38:35;;;;;;;6.90;5.38;;;;;;;;;;5058822;28;20072;-83
2021/07/25 09:41:15;;;;;;;7.25;5.80;;;;;;;;;;5040967;28;20052;-83
2021/07/25 09:43:42;;;;;;;7.25;5.35;;;;;;;;;;5060035;28;20048;-83
2021/07/25 09:46:09;;;;;;;8.05;4.85;;;;;;;;;;5056608;28;20400;-84
2021/07/25 09:48:36;;;;;;;7.55;5.05;;;;;;;;;;5056548;28;20041;-83
2021/07/25 09:51:04;;;;;;;6.88;4.50;;;;;;;;;;5055209;28;20060;-84
2021/07/25 09:53:42;;;;;;;8.20;4.50;;;;;;;;;;5039370;28;20123;-85
2021/07/25 09:56:14;;;;;;;8.00;5.00;;;;;;;;;;5053273;28;20041;-84
2021/07/25 09:58:40;;;;;;;6.85;4.80;;;;;;;;;;5056685;28;20055;-84
2021/07/25 10:01:07;;;;;;;6.53;4.68;;;;;;;;;;5041625;28;20053;-85
2021/07/25 10:03:34;;;;;;;6.63;4.20;;;;;;;;;;5057699;28;20041;-84
2021/07/25 10:06:00;;;;;;;5.30;3.88;;;;;;;;;;5039257;28;20408;-85
2021/07/25 10:08:27;;;;;;;5.93;3.72;;;;;;;;;;5055774;28;20050;-86
2021/07/25 10:10:57;;;;;;;7.68;4.55;;;;;;;;;;5043377;28;20056;-86
2021/07/25 10:13:26;;;;;;;6.47;4.60;;;;;;;;;;5048170;28;20044;-84
2021/07/25 10:15:55;;;;;;;7.55;4.72;;;;;;;;;;5041965;28;20444;-85
2021/07/25 10:18:22;;;;;;;6.45;4.68;;;;;;;;;;5054211;28;20041;-86
2021/07/25 10:20:50;;;;;;;6.18;4.63;;;;;;;;;;5056974;28;20052;-85
2021/07/25 10:23:18;;;;;;;5.32;4.22;;;;;;;;;;5058043;28;20060;-85
2021/07/25 10:25:50;;;;;;;7.20;4.40;;;;;;;;;;5057645;28;20049;-85
2021/07/25 10:28:18;;;;;;;6.68;4.72;;;;;;;;;;5038835;28;20049;-85
2021/07/25 10:30:46;;;;;;;9.02;4.20;;;;;;;;;;5050623;28;20063;-85
2021/07/25 10:33:14;;;;;;;7.13;4.30;;;;;;;;;;5056585;28;20052;-85
2021/07/25 10:35:41;;;;;;;5.25;3.80;;;;;;;;;;5057927;28;20048;-85
2021/07/25 10:38:08;;;;;;;8.80;4.75;;;;;;;;;;5057038;28;20428;-85
2021/07/25 10:40:35;;;;;;;5.43;4.00;;;;;;;;;;5058312;28;20049;-85
2021/07/25 10:43:02;;;;;;;5.47;3.90;;;;;;;;;;5059208;28;20107;-85
2021/07/25 10:45:28;;;;;;;5.75;4.38;;;;;;;;;;5058516;28;20497;-85
2021/07/25 10:48:12;;;;;;;5.68;4.13;;;;;;;;;;5058489;28;20053;-85
2021/07/25 10:50:39;;;;;;;7.25;4.32;;;;;;;;;;5059456;28;20048;-84
2021/07/25 10:53:05;;;;;;;5.93;4.30;;;;;;;;;;5059061;28;20127;-85
2021/07/25 10:55:45;;;;;;;6.95;4.07;;;;;;;;;;5053356;28;20560;-85
2021/07/25 10:58:13;;;;;;;8.15;4.63;;;;;;;;;;5051136;28;20045;-85
2021/07/25 11:00:40;;;;;;;6.32;4.72;;;;;;;;;;5047032;28;20045;-85
2021/07/25 11:03:08;;;;;;;5.93;4.00;;;;;;;;;;5059509;28;20063;-86
2021/07/25 11:06:13;;;;;;;5.72;4.18;;;;;;;;;;5038065;28;20539;-85
2021/07/25 11:08:42;;;;;;;6.78;4.55;;;;;;;;;;5058568;28;20042;-84
2021/07/25 11:11:53;;;;;;;5.65;4.43;;;;;;;;;;5058815;28;20045;-85
2021/07/25 11:15:06;;;;;;;5.70;4.20;;;;;;;;;;5057584;28;20053;-85
2021/07/25 11:17:50;;;;;;;7.30;4.82;;;;;;;;;;5054881;28;20041;-85
2021/07/25 11:20:38;;;;;;;5.65;4.30;;;;;;;;;;5054817;28;20573;-86
2021/07/25 11:23:06;;;;;;;6.55;4.25;;;;;;;;;;5061201;28;20063;-85
2021/07/25 11:25:34;;;;;;;6.03;4.45;;;;;;;;;;5063239;28;20051;-86
2021/07/25 11:28:01;;;;;;;6.68;4.53;;;;;;;;;;5059690;28;20040;-85
2021/07/25 11:31:06;;;;;;;6.45;4.93;;;;;;;;;;5049627;28;20052;-84
2021/07/25 11:33:51;;;;;;;8.43;4.88;;;;;;;;;;5055553;28;20072;-84
2021/07/25 11:36:21;;;;;;;7.70;4.80;;;;;;;;;;5052944;28;20512;-84
2021/07/25 11:38:49;;;;;;;6.40;4.47;;;;;;;;;;5056603;28;20544;-84
2021/07/25 11:41:20;;;;;;;7.50;4.68;;;;;;;;;;5048257;28;20048;-84
2021/07/25 11:43:55;;;;;;;6.40;5.10;;;;;;;;;;5046367;28;20048;-85
2021/07/25 11:46:26;;;;;;;7.90;5.43;;;;;;;;;;5049439;28;20048;-84
2021/07/25 11:49:09;;;;;;;7.63;4.93;;;;;;;;;;5049023;28;20052;-84
2021/07/25 11:51:38;;;;;;;7.03;4.63;;;;;;;;;;5048146;28;20097;-85
2021/07/25 11:54:05;;;;;;;6.32;4.70;;;;;;;;;;5047797;28;20045;-85
2021/07/25 11:56:32;;;;;;;8.20;5.40;;;;;;;;;;5049226;28;20045;-85
2021/07/25 11:59:00;;;;;;;5.97;5.15;;;;;;;;;;5047317;28;20045;-85
2021/07/25 12:01:27;;;;;;;8.02;5.00;;;;;;;;;;5047634;28;20056;-86
2021/07/25 12:03:53;;;;;;;7.35;4.47;;;;;;;;;;5046128;28;20474;-85
2021/07/25 12:06:20;;;;;;;6.43;4.88;;;;;;;;;;5042731;28;20052;-85
2021/07/25 12:09:09;;;;;;;10.18;4.93;;;;;;;;;;5042210;28;20042;-87
2021/07/25 12:11:36;;;;;;;8.50;5.07;;;;;;;;;;5043742;28;20124;-85
2021/07/25 12:14:03;;;;;;;6.70;4.68;;;;;;;;;;5042130;28;20041;-85
2021/07/25 12:16:47;;;;;;;7.88;5.45;;;;;;;;;;5044715;28;20046;-85
2021/07/25 12:19:15;;;;;;;8.45;5.05;;;;;;;;;;5045134;28;20113;-86
2021/07/25 12:21:43;;;;;;;10.43;4.60;;;;;;;;;;5041960;28;20044;-86
2021/07/25 12:24:27;;;;;;;6.63;4.50;;;;;;;;;;5043167;28;20052;-86
2021/07/25 12:26:54;;;;;;;6.15;4.30;;;;;;;;;;5022035;28;20497;-86
2021/07/25 12:29:41;;;;;;;6.60;4.28;;;;;;;;;;5043479;28;20045;-87
2021/07/25 12:32:30;;;;;;;6.47;4.38;;;;;;;;;;5047253;28;20055;-86
2021/07/25 12:35:23;;;;;;;8.63;4.20;;;;;;;;;;5052086;28;20049;-86
2021/07/25 12:37:52;;;;;;;8.65;4.28;;;;;;;;;;5046786;28;20045;-86
2021/07/25 12:40:22;;;;;;;7.18;4.47;;;;;;;;;;5049492;28;20049;-86
2021/07/25 12:42:50;;;;;;;6.07;4.53;;;;;;;;;;5053331;28;20433;-86
2021/07/25 12:45:25;;;;;;;6.60;4.80;;;;;;;;;;5052232;28;20049;-85
2021/07/25 12:48:14;;;;;;;7.10;3.95;;;;;;;;;;5049252;28;20112;-86
2021/07/25 12:50:54;;;;;;;5.30;4.00;;;;;;;;;;5039846;28;20046;-85
2021/07/25 12:53:29;;;;;;;7.22;4.35;;;;;;;;;;5036167;28;20049;-85
2021/07/25 12:55:58;;;;;;;5.95;3.88;;;;;;;;;;5050033;28;20049;-85
2021/07/25 12:58:27;;;;;;;8.05;5.00;;;;;;;;;;5053180;28;20053;-85
2021/07/25 13:03:52;;;;;;;5.97;3.85;;;;;;;;;;5000957;28;20709;-86
2021/07/25 13:06:22;;;;;;;7.32;4.82;;;;;;;;;;5037427;28;20049;-86
2021/07/25 13:08:50;;;;;;;6.53;4.35;;;;;;;;;;5054615;28;20431;-85
2021/07/25 13:11:20;;;;;;;6.15;3.78;;;;;;;;;;5036941;28;20072;-84
2021/07/25 13:13:48;;;;;;;7.68;3.97;;;;;;;;;;5036958;28;20595;-84
2021/07/25 13:16:16;;;;;;;6.32;3.63;;;;;;;;;;5055351;28;20041;-84
2021/07/25 13:18:44;;;;;;;4.78;3.40;;;;;;;;;;5050806;28;20552;-85
2021/07/25 13:21:11;;;;;;;7.93;4.35;;;;;;;;;;5053120;28;20049;-85
2021/07/25 13:23:38;;;;;;;6.85;4.20;;;;;;;;;;5052754;28;20045;-86
2021/07/25 13:26:06;;;;;;;5.60;3.95;;;;;;;;;;5002619;28;20049;-85
2021/07/25 13:28:34;;;;;;;4.57;3.25;;;;;;;;;;5035117;28;20091;-85
2021/07/25 13:31:00;;;;;;;6.00;4.40;;;;;;;;;;5052058;28;20045;-86
2021/07/25 13:33:28;;;;;;;4.65;3.22;;;;;;;;;;5034858;28;20044;-85
2021/07/25 13:35:55;;;;;;;6.40;3.55;;;;;;;;;;5052675;28;20041;-85
2021/07/25 13:38:21;;;;;;;6.50;4.00;;;;;;;;;;5034684;28;20676;-85
2021/07/25 13:40:48;;;;;;;5.18;3.30;;;;;;;;;;5053471;28;20111;-85
2021/07/25 13:43:15;;;;;;;6.75;3.60;;;;;;;;;;5018710;28;20091;-85
2021/07/25 13:45:48;;;;;;;6.32;4.95;;;;;;;;;;5052864;28;20052;-85
2021/07/25 13:48:15;;;;;;;6.47;4.65;;;;;;;;;;5056837;28;20041;-86
2021/07/25 13:50:42;;;;;;;6.30;4.55;;;;;;;;;;5038520;28;20489;-85
2021/07/25 13:53:09;;;;;;;6.05;4.88;;;;;;;;;;5038120;28;20041;-85
2021/07/25 13:55:36;;;;;;;6.07;3.63;;;;;;;;;;5056196;28;20049;-85
2021/07/25 13:58:04;;;;;;;6.50;4.57;;;;;;;;;;5038367;28;20051;-85
2021/07/25 14:00:31;;;;;;;6.25;3.08;;;;;;;;;;5054791;28;20045;-85
2021/07/25 14:03:02;;;;;;;6.00;3.10;;;;;;;;;;5054866;28;20064;-85
2021/07/25 14:05:30;;;;;;;5.10;3.38;;;;;;;;;;5055794;28;20045;-85
2021/07/25 14:07:58;;;;;;;6.28;3.05;;;;;;;;;;5055220;28;20051;-85
2021/07/25 14:10:25;;;;;;;6.10;3.72;;;;;;;;;;5039329;28;20052;-85
2021/07/25 14:12:52;;;;;;;5.47;2.95;;;;;;;;;;5034785;28;20044;-85
2021/07/25 14:15:20;;;;;;;6.22;4.30;;;;;;;;;;5018745;28;20401;-85
2021/07/25 14:17:46;;;;;;;6.57;3.63;;;;;;;;;;5055642;28;20047;-86
2021/07/25 14:20:15;;;;;;;4.80;3.13;;;;;;;;;;5055708;28;20049;-85
2021/07/25 14:22:43;;;;;;;5.20;3.67;;;;;;;;;;5022429;28;20408;-85
2021/07/25 14:25:12;;;;;;;8.63;3.70;;;;;;;;;;5050365;28;20063;-85
2021/07/25 14:27:39;;;;;;;5.75;3.15;;;;;;;;;;5054612;28;20063;-85
2021/07/25 14:30:09;;;;;;;4.95;3.40;;;;;;;;;;5055292;28;20139;-85
2021/07/25 14:32:43;;;;;;;5.20;3.10;;;;;;;;;;5051189;28;20052;-85
2021/07/25 14:35:11;;;;;;;4.00;3.05;;;;;;;;;;5052661;28;20473;-84
2021/07/25 14:37:40;;;;;;;4.35;3.20;;;;;;;;;;5056871;28;20507;-84
2021/07/25 14:40:08;;;;;;;4.82;3.15;;;;;;;;;;5056881;28;20041;-85
2021/07/25 14:42:36;;;;;;;5.20;3.55;;;;;;;;;;5032281;28;20045;-85
2021/07/25 14:45:04;;;;;;;5.15;3.58;;;;;;;;;;5047642;28;20492;-85
2021/07/25 14:47:33;;;;;;;6.22;3.83;;;;;;;;;;5055521;28;20049;-85
2021/07/25 14:50:01;;;;;;;5.63;3.45;;;;;;;;;;5031643;28;20059;-85
2021/07/25 14:52:27;;;;;;;5.32;3.38;;;;;;;;;;5055070;28;20049;-84
2021/07/25 14:54:55;;;;;;;6.50;4.20;;;;;;;;;;5021288;28;20045;-86
2021/07/25 14:57:22;;;;;;;4.75;3.35;;;;;;;;;;5054310;28;20056;-84